Time,TemperatureF,DewpointF,PressureIn,WindDirection,WindDirectionDegrees,WindSpeedMPH,WindSpeedGustMPH,Humidity,HourlyPrecipIn,Conditions,Clouds,dailyrainin,SoftwareType,DateUTC
2013-05-24 00:02:00,53.0,32.0,-100.00,ESE,110,6.0,9.0,44,-99.99,,,-99.99,,2013-05-24 05:02:00,
2013-05-24 00:12:00,53.0,32.0,-100.00,ESE,110,6.0,9.0,44,-99.99,,,-99.99,,2013-05-24 05:12:00,
2013-05-24 00:22:00,53.0,32.0,-100.00,ESE,110,6.0,9.0,44,-99.99,,,-99.99,,2013-05-24 05:22:00,
2013-05-24 00:32:00,53.0,32.0,-100.00,SE,130,6.0,9.0,45,-99.99,,,-99.99,,2013-05-24 05:32:00,
2013-05-24 00:42:00,53.0,32.0,-100.00,SE,130,6.0,9.0,45,-99.99,,,-99.99,,2013-05-24 05:42:00,
2013-05-24 00:52:00,53.0,32.0,-100.00,SE,130,6.0,9.0,45,-99.99,,,-99.99,,2013-05-24 05:52:00,
2013-05-24 01:02:00,52.0,32.0,-100.00,SE,125,6.0,11.0,46,-99.99,,,-99.99,,2013-05-24 06:02:00,
2013-05-24 01:12:00,52.0,32.0,-100.00,SE,125,6.0,11.0,46,-99.99,,,-99.99,,2013-05-24 06:12:00,
2013-05-24 01:21:00,52.0,32.0,-100.00,SE,125,6.0,11.0,46,-99.99,,,-99.99,,2013-05-24 06:21:00,
2013-05-24 01:32:00,51.0,32.0,-100.00,ESE,105,6.0,9.0,50,-99.99,,,-99.99,,2013-05-24 06:32:00,
2013-05-24 01:42:00,51.0,32.0,-100.00,ESE,105,6.0,9.0,50,-99.99,,,-99.99,,2013-05-24 06:42:00,
2013-05-24 01:52:00,51.0,32.0,-100.00,ESE,105,6.0,9.0,50,-99.99,,,-99.99,,2013-05-24 06:52:00,
2013-05-24 02:01:00,49.0,33.0,-100.00,ESE,120,6.0,9.0,54,-99.99,,,-99.99,,2013-05-24 07:01:00,
2013-05-24 02:11:00,49.0,33.0,-100.00,ESE,120,6.0,9.0,54,-99.99,,,-99.99,,2013-05-24 07:11:00,
2013-05-24 02:22:00,49.0,33.0,-100.00,ESE,120,6.0,9.0,54,-99.99,,,-99.99,,2013-05-24 07:22:00,
2013-05-24 02:32:00,47.0,35.0,-100.00,ESE,120,6.0,9.0,63,-99.99,,,-99.99,,2013-05-24 07:32:00,
2013-05-24 02:42:00,47.0,35.0,-100.00,ESE,120,6.0,9.0,63,-99.99,,,-99.99,,2013-05-24 07:42:00,
2013-05-24 02:52:00,47.0,35.0,-100.00,ESE,120,6.0,9.0,63,-99.99,,,-99.99,,2013-05-24 07:52:00,
2013-05-24 03:02:00,46.0,36.0,-100.00,SE,125,6.0,7.0,69,-99.99,,,-99.99,,2013-05-24 08:02:00,
2013-05-24 03:11:00,46.0,36.0,-100.00,SE,125,6.0,7.0,69,-99.99,,,-99.99,,2013-05-24 08:11:00,
2013-05-24 03:22:00,46.0,36.0,-100.00,SE,125,6.0,7.0,69,-99.99,,,-99.99,,2013-05-24 08:22:00,
2013-05-24 03:32:00,46.0,37.0,-100.00,SE,130,5.0,7.0,71,-99.99,,,-99.99,,2013-05-24 08:32:00,
2013-05-24 03:42:00,46.0,37.0,-100.00,SE,130,5.0,7.0,71,-99.99,,,-99.99,,2013-05-24 08:42:00,
2013-05-24 03:52:00,46.0,37.0,-100.00,SE,130,5.0,7.0,71,-99.99,,,-99.99,,2013-05-24 08:52:00,
2013-05-24 04:02:00,48.0,37.0,-100.00,SE,140,6.0,9.0,66,-99.99,,,-99.99,,2013-05-24 09:02:00,
2013-05-24 04:11:00,48.0,37.0,-100.00,SE,140,6.0,9.0,66,-99.99,,,-99.99,,2013-05-24 09:11:00,
2013-05-24 04:21:00,48.0,37.0,-100.00,SE,140,6.0,9.0,66,-99.99,,,-99.99,,2013-05-24 09:21:00,
2013-05-24 04:32:00,47.0,36.0,-100.00,SE,135,7.0,10.0,66,-99.99,,,-99.99,,2013-05-24 09:32:00,
2013-05-24 04:42:00,47.0,36.0,-100.00,SE,135,7.0,10.0,66,-99.99,,,-99.99,,2013-05-24 09:42:00,
2013-05-24 04:53:00,47.0,36.0,-100.00,SE,135,7.0,10.0,66,-99.99,,,-99.99,,2013-05-24 09:53:00,
2013-05-24 05:03:00,46.0,36.0,-100.00,SE,125,6.0,7.0,68,-99.99,,,-99.99,,2013-05-24 10:03:00,
2013-05-24 05:12:00,46.0,36.0,-100.00,SE,125,6.0,7.0,68,-99.99,,,-99.99,,2013-05-24 10:12:00,
2013-05-24 05:22:00,46.0,36.0,-100.00,SE,125,6.0,7.0,68,-99.99,,,-99.99,,2013-05-24 10:22:00,
2013-05-24 05:32:00,46.0,36.0,-100.00,SE,130,6.0,7.0,69,-99.99,,,-99.99,,2013-05-24 10:32:00,
2013-05-24 05:42:00,46.0,36.0,-100.00,SE,130,6.0,7.0,69,-99.99,,,-99.99,,2013-05-24 10:42:00,
2013-05-24 05:53:00,46.0,36.0,-100.00,SE,130,6.0,7.0,69,-99.99,,,-99.99,,2013-05-24 10:53:00,
2013-05-24 06:02:00,45.0,36.0,-100.00,SE,140,6.0,8.0,71,-99.99,,,-99.99,,2013-05-24 11:02:00,
2013-05-24 06:12:00,45.0,36.0,-100.00,SE,140,6.0,8.0,71,-99.99,,,-99.99,,2013-05-24 11:12:00,
2013-05-24 06:22:00,45.0,36.0,-100.00,SE,140,6.0,8.0,71,-99.99,,,-99.99,,2013-05-24 11:22:00,
2013-05-24 06:32:00,45.0,37.0,-100.00,SE,125,6.0,7.0,74,-99.99,,,-99.99,,2013-05-24 11:32:00,
2013-05-24 06:42:00,45.0,37.0,-100.00,SE,125,6.0,7.0,74,-99.99,,,-99.99,,2013-05-24 11:42:00,
2013-05-24 06:52:00,45.0,37.0,-100.00,SE,125,6.0,7.0,74,-99.99,,,-99.99,,2013-05-24 11:52:00,
2013-05-24 07:02:00,45.0,38.0,-100.00,SE,130,6.0,7.0,78,-99.99,,,-99.99,,2013-05-24 12:02:00,
2013-05-24 07:11:00,45.0,38.0,-100.00,SE,130,6.0,7.0,78,-99.99,,,-99.99,,2013-05-24 12:11:00,
2013-05-24 07:21:00,45.0,38.0,-100.00,SE,130,6.0,7.0,78,-99.99,,,-99.99,,2013-05-24 12:21:00,
2013-05-24 07:32:00,47.0,40.0,-100.00,SE,130,6.0,9.0,76,-99.99,,,-99.99,,2013-05-24 12:32:00,
2013-05-24 07:42:00,47.0,40.0,-100.00,SE,130,6.0,9.0,76,-99.99,,,-99.99,,2013-05-24 12:42:00,
2013-05-24 07:52:00,47.0,40.0,-100.00,SE,130,6.0,9.0,76,-99.99,,,-99.99,,2013-05-24 12:52:00,
2013-05-24 08:02:00,51.0,41.0,-100.00,SSE,150,6.0,10.0,69,-99.99,,,-99.99,,2013-05-24 13:02:00,
2013-05-24 08:11:00,51.0,41.0,-100.00,SSE,150,6.0,10.0,69,-99.99,,,-99.99,,2013-05-24 13:11:00,
2013-05-24 08:21:00,51.0,41.0,-100.00,SSE,150,6.0,10.0,69,-99.99,,,-99.99,,2013-05-24 13:21:00,
2013-05-24 08:32:00,53.0,40.0,-100.00,SSE,160,9.0,16.0,60,-99.99,,,-99.99,,2013-05-24 13:32:00,
2013-05-24 08:42:00,53.0,40.0,-100.00,SSE,160,9.0,16.0,60,-99.99,,,-99.99,,2013-05-24 13:42:00,
2013-05-24 08:52:00,53.0,40.0,-100.00,SSE,160,9.0,16.0,60,-99.99,,,-99.99,,2013-05-24 13:52:00,
2013-05-24 09:01:00,55.0,39.0,-100.00,SSE,165,9.0,15.0,56,-99.99,,,-99.99,,2013-05-24 14:01:00,
2013-05-24 09:11:00,55.0,39.0,-100.00,SSE,165,9.0,15.0,56,-99.99,,,-99.99,,2013-05-24 14:11:00,
2013-05-24 09:21:00,55.0,39.0,-100.00,SSE,165,9.0,15.0,56,-99.99,,,-99.99,,2013-05-24 14:21:00,
2013-05-24 09:32:00,56.0,39.0,-100.00,SSE,160,11.0,17.0,54,-99.99,,,-99.99,,2013-05-24 14:32:00,
2013-05-24 09:42:00,56.0,39.0,-100.00,SSE,160,11.0,17.0,54,-99.99,,,-99.99,,2013-05-24 14:42:00,
2013-05-24 09:52:00,56.0,39.0,-100.00,SSE,160,11.0,17.0,54,-99.99,,,-99.99,,2013-05-24 14:52:00,
2013-05-24 10:02:00,58.0,39.0,-100.00,SSE,160,14.0,20.0,49,-99.99,,,-99.99,,2013-05-24 15:02:00,
2013-05-24 10:11:00,58.0,39.0,-100.00,SSE,160,14.0,20.0,49,-99.99,,,-99.99,,2013-05-24 15:11:00,
2013-05-24 10:21:00,58.0,39.0,-100.00,SSE,160,14.0,20.0,49,-99.99,,,-99.99,,2013-05-24 15:21:00,
2013-05-24 10:32:00,60.0,39.0,-100.00,SE,145,12.0,21.0,46,-99.99,,,-99.99,,2013-05-24 15:32:00,
2013-05-24 10:43:00,60.0,39.0,-100.00,SE,145,12.0,21.0,46,-99.99,,,-99.99,,2013-05-24 15:43:00,
2013-05-24 10:52:00,60.0,39.0,-100.00,SE,145,12.0,21.0,46,-99.99,,,-99.99,,2013-05-24 15:52:00,
2013-05-24 11:03:00,61.0,38.0,-100.00,SSE,155,15.0,26.0,43,-99.99,,,-99.99,,2013-05-24 16:03:00,
2013-05-24 11:12:00,61.0,38.0,-100.00,SSE,155,15.0,26.0,43,-99.99,,,-99.99,,2013-05-24 16:12:00,
2013-05-24 11:22:00,61.0,38.0,-100.00,SSE,155,15.0,26.0,43,-99.99,,,-99.99,,2013-05-24 16:22:00,
2013-05-24 11:32:00,62.0,37.0,-100.00,SSE,160,16.0,27.0,40,-99.99,,,-99.99,,2013-05-24 16:32:00,
2013-05-24 11:42:00,62.0,37.0,-100.00,SSE,160,16.0,27.0,40,-99.99,,,-99.99,,2013-05-24 16:42:00,
2013-05-24 11:52:00,62.0,37.0,-100.00,SSE,160,16.0,27.0,40,-99.99,,,-99.99,,2013-05-24 16:52:00,
2013-05-24 12:02:00,63.0,37.0,-100.00,SSE,160,15.0,29.0,38,-99.99,,,-99.99,,2013-05-24 17:02:00,
2013-05-24 12:12:00,63.0,37.0,-100.00,SSE,160,15.0,29.0,38,-99.99,,,-99.99,,2013-05-24 17:12:00,
2013-05-24 12:22:00,63.0,37.0,-100.00,SSE,160,15.0,29.0,38,-99.99,,,-99.99,,2013-05-24 17:22:00,
2013-05-24 12:32:00,64.0,36.0,-100.00,SSE,155,17.0,26.0,36,-99.99,,,-99.99,,2013-05-24 17:32:00,
2013-05-24 12:42:00,64.0,36.0,-100.00,SSE,155,17.0,26.0,36,-99.99,,,-99.99,,2013-05-24 17:42:00,
2013-05-24 12:52:00,64.0,36.0,-100.00,SSE,155,17.0,26.0,36,-99.99,,,-99.99,,2013-05-24 17:52:00,
2013-05-24 13:01:00,66.0,37.0,-100.00,SE,135,16.0,28.0,35,-99.99,,,-99.99,,2013-05-24 18:01:00,
2013-05-24 13:12:00,66.0,37.0,-100.00,SE,135,16.0,28.0,35,-99.99,,,-99.99,,2013-05-24 18:12:00,
2013-05-24 13:21:00,66.0,37.0,-100.00,SE,135,16.0,28.0,35,-99.99,,,-99.99,,2013-05-24 18:21:00,
2013-05-24 13:32:00,66.0,35.0,-100.00,South,175,14.0,32.0,32,-99.99,,,-99.99,,2013-05-24 18:32:00,
2013-05-24 13:42:00,66.0,35.0,-100.00,South,175,14.0,32.0,32,-99.99,,,-99.99,,2013-05-24 18:42:00,
2013-05-24 13:52:00,66.0,35.0,-100.00,South,175,14.0,32.0,32,-99.99,,,-99.99,,2013-05-24 18:52:00,
2013-05-24 14:01:00,68.0,36.0,-100.00,SE,145,16.0,29.0,31,-99.99,,,-99.99,,2013-05-24 19:01:00,
2013-05-24 14:11:00,68.0,36.0,-100.00,SE,145,16.0,29.0,31,-99.99,,,-99.99,,2013-05-24 19:11:00,
2013-05-24 14:21:00,68.0,36.0,-100.00,SE,145,16.0,29.0,31,-99.99,,,-99.99,,2013-05-24 19:21:00,
2013-05-24 14:32:00,68.0,36.0,-100.00,SE,135,16.0,27.0,30,-99.99,,,-99.99,,2013-05-24 19:32:00,
2013-05-24 14:42:00,68.0,36.0,-100.00,SE,135,16.0,27.0,30,-99.99,,,-99.99,,2013-05-24 19:42:00,
2013-05-24 14:52:00,68.0,36.0,-100.00,SE,135,16.0,27.0,30,-99.99,,,-99.99,,2013-05-24 19:52:00,
2013-05-24 15:02:00,68.0,34.0,-100.00,SSE,160,17.0,29.0,29,-99.99,,,-99.99,,2013-05-24 20:02:00,
2013-05-24 15:11:00,68.0,34.0,-100.00,SSE,160,17.0,29.0,29,-99.99,,,-99.99,,2013-05-24 20:11:00,
2013-05-24 15:21:00,68.0,34.0,-100.00,SSE,160,17.0,29.0,29,-99.99,,,-99.99,,2013-05-24 20:21:00,
2013-05-24 15:32:00,69.0,35.0,-100.00,South,180,14.0,22.0,29,-99.99,,,-99.99,,2013-05-24 20:32:00,
2013-05-24 15:42:00,69.0,35.0,-100.00,South,180,14.0,22.0,29,-99.99,,,-99.99,,2013-05-24 20:42:00,
2013-05-24 15:52:00,69.0,35.0,-100.00,South,180,14.0,22.0,29,-99.99,,,-99.99,,2013-05-24 20:52:00,
2013-05-24 16:01:00,67.0,35.0,-100.00,South,180,13.0,24.0,31,-99.99,,,-99.99,,2013-05-24 21:01:00,
2013-05-24 16:11:00,67.0,35.0,-100.00,South,180,13.0,24.0,31,-99.99,,,-99.99,,2013-05-24 21:11:00,
2013-05-24 16:21:00,67.0,35.0,-100.00,South,180,13.0,24.0,31,-99.99,,,-99.99,,2013-05-24 21:21:00,
2013-05-24 16:32:00,66.0,37.0,-100.00,South,180,12.0,19.0,34,-99.99,,,-99.99,,2013-05-24 21:32:00,
2013-05-24 16:43:00,66.0,37.0,-100.00,South,180,12.0,19.0,34,-99.99,,,-99.99,,2013-05-24 21:43:00,
2013-05-24 16:53:00,66.0,37.0,-100.00,South,180,12.0,19.0,34,-99.99,,,-99.99,,2013-05-24 21:53:00,
2013-05-24 17:02:00,63.0,39.0,-100.00,South,180,14.0,26.0,41,-99.99,,,-99.99,,2013-05-24 22:02:00,
2013-05-24 17:12:00,63.0,39.0,-100.00,South,180,14.0,26.0,41,-99.99,,,-99.99,,2013-05-24 22:12:00,
2013-05-24 17:22:00,63.0,39.0,-100.00,South,180,14.0,26.0,41,-99.99,,,-99.99,,2013-05-24 22:22:00,
2013-05-24 17:33:00,59.0,45.0,-100.00,South,170,14.0,23.0,60,-99.99,,,-99.99,,2013-05-24 22:33:00,
2013-05-24 17:42:00,59.0,45.0,-100.00,South,170,14.0,23.0,60,-99.99,,,-99.99,,2013-05-24 22:42:00,
2013-05-24 17:52:00,59.0,45.0,-100.00,South,170,14.0,23.0,60,-99.99,,,-99.99,,2013-05-24 22:52:00,
2013-05-24 18:02:00,57.0,48.0,-100.00,SE,145,9.0,18.0,72,-99.99,,,-99.99,,2013-05-24 23:02:00,
2013-05-24 18:11:00,57.0,48.0,-100.00,SE,145,9.0,18.0,72,-99.99,,,-99.99,,2013-05-24 23:11:00,
2013-05-24 18:22:00,57.0,48.0,-100.00,SE,145,9.0,18.0,72,-99.99,,,-99.99,,2013-05-24 23:22:00,
2013-05-24 18:32:00,57.0,49.0,-100.00,SE,145,7.0,12.0,74,-99.99,,,-99.99,,2013-05-24 23:32:00,
2013-05-24 18:42:00,57.0,49.0,-100.00,SE,145,7.0,12.0,74,-99.99,,,-99.99,,2013-05-24 23:42:00,
2013-05-24 18:52:00,57.0,49.0,-100.00,SE,145,7.0,12.0,74,-99.99,,,-99.99,,2013-05-24 23:52:00,
2013-05-24 19:01:00,58.0,49.0,-100.00,SE,135,11.0,15.0,71,-99.99,,,-99.99,,2013-05-25 00:01:00,
2013-05-24 19:11:00,58.0,49.0,-100.00,SE,135,11.0,15.0,71,-99.99,,,-99.99,,2013-05-25 00:11:00,
2013-05-24 19:21:00,58.0,49.0,-100.00,SE,135,11.0,15.0,71,-99.99,,,-99.99,,2013-05-25 00:21:00,
2013-05-24 19:32:00,58.0,47.0,-100.00,SE,130,8.0,15.0,65,-99.99,,,-99.99,,2013-05-25 00:32:00,
2013-05-24 19:42:00,58.0,47.0,-100.00,SE,130,8.0,15.0,65,-99.99,,,-99.99,,2013-05-25 00:42:00,
2013-05-24 19:52:00,58.0,47.0,-100.00,SE,130,8.0,15.0,65,-99.99,,,-99.99,,2013-05-25 00:52:00,
2013-05-24 20:01:00,57.0,48.0,-100.00,SE,125,6.0,12.0,70,-99.99,,,-99.99,,2013-05-25 01:01:00,
2013-05-24 20:11:00,57.0,48.0,-100.00,SE,125,6.0,12.0,70,-99.99,,,-99.99,,2013-05-25 01:11:00,
2013-05-24 20:22:00,57.0,48.0,-100.00,SE,125,6.0,12.0,70,-99.99,,,-99.99,,2013-05-25 01:22:00,
2013-05-24 20:32:00,58.0,47.0,-100.00,East,100,9.0,24.0,67,-99.99,,,-99.99,,2013-05-25 01:32:00,
2013-05-24 20:42:00,58.0,47.0,-100.00,East,100,9.0,24.0,67,-99.99,,,-99.99,,2013-05-25 01:42:00,
2013-05-24 20:52:00,58.0,47.0,-100.00,East,100,9.0,24.0,67,-99.99,,,-99.99,,2013-05-25 01:52:00,
2013-05-24 21:02:00,57.0,47.0,-100.00,SE,130,7.0,12.0,71,-99.99,,,-99.99,,2013-05-25 02:02:00,
2013-05-24 21:12:00,57.0,47.0,-100.00,SE,130,7.0,12.0,71,-99.99,,,-99.99,,2013-05-25 02:12:00,
2013-05-24 21:21:00,57.0,47.0,-100.00,SE,130,7.0,12.0,71,-99.99,,,-99.99,,2013-05-25 02:21:00,
2013-05-24 21:31:00,58.0,47.0,-100.00,SE,135,12.0,21.0,66,-99.99,,,-99.99,,2013-05-25 02:31:00,
2013-05-24 21:42:00,58.0,47.0,-100.00,SE,135,12.0,21.0,66,-99.99,,,-99.99,,2013-05-25 02:42:00,
2013-05-24 21:52:00,58.0,47.0,-100.00,SE,135,12.0,21.0,66,-99.99,,,-99.99,,2013-05-25 02:52:00,
2013-05-24 22:02:00,57.0,46.0,-100.00,SE,140,19.0,32.0,67,-99.99,,,-99.99,,2013-05-25 03:02:00,
2013-05-24 22:11:00,57.0,46.0,-100.00,SE,140,19.0,32.0,67,-99.99,,,-99.99,,2013-05-25 03:11:00,
2013-05-24 22:21:00,57.0,46.0,-100.00,SE,140,19.0,32.0,67,-99.99,,,-99.99,,2013-05-25 03:21:00,
2013-05-24 22:32:00,57.0,47.0,-100.00,SE,140,16.0,22.0,69,-99.99,,,-99.99,,2013-05-25 03:32:00,
2013-05-24 22:43:00,57.0,47.0,-100.00,SE,140,16.0,22.0,69,-99.99,,,-99.99,,2013-05-25 03:43:00,
2013-05-24 22:53:00,57.0,47.0,-100.00,SE,140,16.0,22.0,69,-99.99,,,-99.99,,2013-05-25 03:53:00,
2013-05-24 23:02:00,56.0,47.0,-100.00,SE,140,14.0,24.0,73,-99.99,,,-99.99,,2013-05-25 04:02:00,
2013-05-24 23:13:00,56.0,47.0,-100.00,SE,140,14.0,24.0,73,-99.99,,,-99.99,,2013-05-25 04:13:00,
2013-05-24 23:23:00,56.0,47.0,-100.00,SE,140,14.0,24.0,73,-99.99,,,-99.99,,2013-05-25 04:23:00,
2013-05-24 23:33:00,56.0,47.0,-100.00,SE,140,14.0,24.0,73,-99.99,,,-99.99,,2013-05-25 04:33:00,